createdAt,value
2017-09-04T00:01:05.866Z,14.20
2017-09-04T00:03:34.192Z,14.10
2017-09-04T00:06:02.418Z,14.10
2017-09-04T00:08:30.710Z,14.10
2017-09-04T00:10:58.951Z,14.10
2017-09-04T00:13:27.987Z,14.10
2017-09-04T00:15:56.227Z,14.10
2017-09-04T00:18:24.595Z,14.10
2017-09-04T00:20:52.847Z,14.10
2017-09-04T00:23:21.132Z,14.10
2017-09-04T00:25:49.452Z,14.10
2017-09-04T00:28:17.691Z,14.10
2017-09-04T00:30:45.941Z,14.00
2017-09-04T00:33:14.252Z,14.10
2017-09-04T00:35:42.535Z,14.00
2017-09-04T00:38:10.811Z,14.00
2017-09-04T00:40:39.103Z,14.00
2017-09-04T00:43:07.368Z,14.00
2017-09-04T00:45:35.679Z,14.00
2017-09-04T00:48:03.955Z,14.00
2017-09-04T00:50:32.215Z,13.90
2017-09-04T00:53:00.500Z,13.90
2017-09-04T00:55:28.784Z,13.80
2017-09-04T00:57:57.072Z,13.80
2017-09-04T01:00:25.360Z,13.80
2017-09-04T01:02:53.627Z,13.90
2017-09-04T01:05:21.902Z,13.80
2017-09-04T01:07:50.143Z,13.80
2017-09-04T01:10:18.476Z,13.80
2017-09-04T01:12:46.728Z,13.80
2017-09-04T01:15:15.030Z,13.80
2017-09-04T01:17:43.317Z,13.70
2017-09-04T01:20:11.580Z,13.70
2017-09-04T01:22:39.867Z,13.70
2017-09-04T01:25:08.130Z,13.60
2017-09-04T01:27:36.435Z,13.70
2017-09-04T01:30:04.700Z,13.60
2017-09-04T01:32:32.943Z,13.60
2017-09-04T01:35:01.195Z,13.60
2017-09-04T01:37:29.449Z,13.60
2017-09-04T01:39:57.779Z,13.60
2017-09-04T01:42:26.066Z,13.60
2017-09-04T01:44:54.324Z,13.50
2017-09-04T01:47:22.566Z,13.50
2017-09-04T01:49:50.866Z,13.50
2017-09-04T01:52:19.122Z,13.50
2017-09-04T01:54:47.507Z,13.50
2017-09-04T01:57:15.810Z,13.40
2017-09-04T01:59:44.128Z,13.40
2017-09-04T02:02:12.379Z,13.40
2017-09-04T02:04:40.647Z,13.40
2017-09-04T02:07:08.947Z,13.30
2017-09-04T02:09:37.218Z,13.30
2017-09-04T02:12:05.497Z,13.30
2017-09-04T02:14:33.784Z,13.30
2017-09-04T02:17:02.068Z,13.30
2017-09-04T02:19:30.324Z,13.20
2017-09-04T02:21:58.582Z,13.20
2017-09-04T02:24:26.900Z,13.20
2017-09-04T02:26:55.760Z,13.10
2017-09-04T02:29:24.777Z,13.10
2017-09-04T02:31:53.082Z,13.10
2017-09-04T02:34:21.327Z,13.10
2017-09-04T02:36:50.349Z,13.10
2017-09-04T02:39:18.647Z,13.10
2017-09-04T02:41:46.938Z,13.10
2017-09-04T02:44:15.199Z,13.00
2017-09-04T02:46:43.458Z,12.90
2017-09-04T02:49:11.866Z,12.90
2017-09-04T02:51:40.147Z,12.80
2017-09-04T02:54:08.412Z,12.70
2017-09-04T02:56:36.702Z,12.60
2017-09-04T02:59:04.958Z,12.70
2017-09-04T03:01:33.226Z,12.70
2017-09-04T03:04:02.258Z,12.70
2017-09-04T03:06:30.523Z,12.70
2017-09-04T03:08:58.771Z,12.70
2017-09-04T03:11:27.102Z,12.80
2017-09-04T03:13:55.363Z,12.70
2017-09-04T03:16:24.378Z,12.70
2017-09-04T03:18:52.664Z,12.70
2017-09-04T03:21:20.990Z,12.80
2017-09-04T03:23:49.229Z,12.80
2017-09-04T03:26:17.549Z,12.80
2017-09-04T03:28:45.790Z,12.80
2017-09-04T03:31:14.062Z,12.80
2017-09-04T03:33:42.364Z,12.80
2017-09-04T03:36:10.627Z,12.80
2017-09-04T03:38:38.920Z,12.80
2017-09-04T03:41:07.176Z,12.80
2017-09-04T03:43:35.515Z,12.80
2017-09-04T03:46:03.757Z,12.80
2017-09-04T03:48:31.999Z,12.80
2017-09-04T03:51:01.029Z,12.70
2017-09-04T03:53:35.464Z,12.70
2017-09-04T03:56:03.716Z,12.70
2017-09-04T03:58:31.958Z,12.70
2017-09-04T04:01:00.199Z,12.70
2017-09-04T04:03:28.458Z,12.70
2017-09-04T04:05:56.725Z,12.70
2017-09-04T04:08:24.997Z,12.70
2017-09-04T04:10:53.270Z,12.70
2017-09-04T04:13:21.521Z,12.60
2017-09-04T04:15:49.768Z,12.60
2017-09-04T04:18:18.141Z,12.60
2017-09-04T04:20:46.392Z,12.60
2017-09-04T04:23:14.656Z,12.60
2017-09-04T04:25:42.990Z,12.60
2017-09-04T04:28:11.285Z,12.60
2017-09-04T04:30:39.531Z,12.60
2017-09-04T04:33:08.473Z,12.50
2017-09-04T04:35:36.742Z,12.50
2017-09-04T04:38:05.531Z,12.50
2017-09-04T04:40:33.786Z,12.50
2017-09-04T04:43:02.044Z,12.50
2017-09-04T04:45:30.364Z,12.50
2017-09-04T04:47:58.658Z,12.50
2017-09-04T04:50:26.912Z,12.60
2017-09-04T04:52:55.186Z,12.50
2017-09-04T04:55:23.454Z,12.50
2017-09-04T04:57:51.742Z,12.50
2017-09-04T05:00:19.994Z,12.60
2017-09-04T05:02:48.280Z,12.60
2017-09-04T05:05:16.529Z,12.60
2017-09-04T05:07:44.805Z,12.70
2017-09-04T05:10:13.233Z,12.60
2017-09-04T05:12:41.498Z,12.60
2017-09-04T05:15:09.749Z,12.60
2017-09-04T05:17:38.019Z,12.70
2017-09-04T05:20:06.268Z,12.60
2017-09-04T05:22:34.579Z,12.60
2017-09-04T05:25:02.832Z,12.70
2017-09-04T05:27:31.109Z,12.70
2017-09-04T05:29:59.366Z,12.70
2017-09-04T05:32:28.381Z,12.80
2017-09-04T05:34:56.651Z,12.80
2017-09-04T05:37:24.972Z,12.80
2017-09-04T05:39:53.222Z,12.90
2017-09-04T05:42:21.469Z,12.90
2017-09-04T05:44:49.753Z,12.90
2017-09-04T05:47:18.005Z,13.00
2017-09-04T05:49:46.271Z,13.10
2017-09-04T05:52:14.564Z,13.10
2017-09-04T05:54:42.814Z,13.20
2017-09-04T05:57:11.063Z,13.30
2017-09-04T05:59:39.342Z,13.30
2017-09-04T06:02:08.356Z,13.50
2017-09-04T06:04:36.639Z,13.50
2017-09-04T06:07:05.656Z,13.70
2017-09-04T06:09:34.718Z,13.80
2017-09-04T06:12:03.020Z,13.70
2017-09-04T06:14:31.373Z,13.70
2017-09-04T06:16:59.681Z,13.70
2017-09-04T06:19:27.942Z,13.80
2017-09-04T06:21:56.279Z,13.80
2017-09-04T06:24:25.315Z,14.10
2017-09-04T06:26:53.563Z,14.10
2017-09-04T06:29:21.862Z,14.30
2017-09-04T06:31:50.109Z,14.60
2017-09-04T06:34:18.366Z,14.90
2017-09-04T06:36:47.426Z,15.30
2017-09-04T06:39:15.731Z,15.20
2017-09-04T06:41:43.996Z,15.30
2017-09-04T06:44:12.275Z,15.50
2017-09-04T06:46:40.525Z,15.50
2017-09-04T06:49:08.785Z,15.70
2017-09-04T06:51:37.044Z,15.90
2017-09-04T06:54:06.092Z,16.50
2017-09-04T06:56:34.349Z,16.50
2017-09-04T06:59:03.242Z,16.80
2017-09-04T07:01:31.530Z,17.10
2017-09-04T07:03:59.782Z,17.40
2017-09-04T07:06:28.050Z,17.70
2017-09-04T07:08:56.294Z,18.10
2017-09-04T07:11:24.556Z,18.40
2017-09-04T07:13:52.810Z,18.80
2017-09-04T07:16:21.069Z,19.00
2017-09-04T07:18:49.333Z,19.30
2017-09-04T07:21:17.633Z,19.50
2017-09-04T07:23:45.892Z,19.70
2017-09-04T07:26:14.148Z,19.90
2017-09-04T07:28:42.394Z,20.10
2017-09-04T07:31:10.666Z,20.40
2017-09-04T07:33:38.948Z,20.60
2017-09-04T07:36:07.979Z,21.20
2017-09-04T07:38:36.278Z,21.20
2017-09-04T07:41:04.540Z,21.30
2017-09-04T07:43:32.770Z,21.40
2017-09-04T07:46:01.796Z,22.00
2017-09-04T07:48:30.047Z,22.00
2017-09-04T07:50:58.302Z,22.30
2017-09-04T07:53:26.549Z,22.50
2017-09-04T07:55:54.803Z,22.60
2017-09-04T07:58:23.043Z,22.80
2017-09-04T08:00:51.322Z,23.10
2017-09-04T08:03:20.594Z,23.70
2017-09-04T08:05:48.942Z,23.70
2017-09-04T08:08:17.212Z,24.10
2017-09-04T08:10:45.477Z,24.20
2017-09-04T08:13:13.735Z,24.40
2017-09-04T08:15:42.927Z,24.40
2017-09-04T08:18:11.927Z,24.40
2017-09-04T08:20:40.201Z,24.40
2017-09-04T08:23:08.462Z,24.30
2017-09-04T08:25:37.488Z,24.10
2017-09-04T08:28:06.162Z,24.10
2017-09-04T08:30:35.173Z,24.00
2017-09-04T08:33:03.423Z,24.00
2017-09-04T08:35:31.709Z,24.10
2017-09-04T08:37:59.947Z,24.20
2017-09-04T08:40:28.197Z,24.20
2017-09-04T08:42:56.458Z,24.40
2017-09-04T08:45:24.700Z,24.60
2017-09-04T08:47:52.953Z,24.80
2017-09-04T08:50:21.195Z,25.00
2017-09-04T08:52:49.458Z,25.10
2017-09-04T08:55:18.488Z,25.40
2017-09-04T08:57:46.742Z,25.30
2017-09-04T09:00:15.751Z,25.50
2017-09-04T09:02:44.027Z,25.50
2017-09-04T09:05:12.265Z,25.50
2017-09-04T09:07:40.530Z,25.60
2017-09-04T09:10:08.874Z,25.70
2017-09-04T09:12:37.930Z,25.90
2017-09-04T09:15:06.170Z,25.80
2017-09-04T09:17:34.413Z,25.80
2017-09-04T09:20:03.461Z,26.00
2017-09-04T09:22:31.745Z,26.00
2017-09-04T09:24:59.995Z,25.90
2017-09-04T09:27:29.010Z,25.50
2017-09-04T09:29:57.276Z,25.50
2017-09-04T09:32:25.531Z,25.40
2017-09-04T09:34:54.055Z,25.40
2017-09-04T09:37:22.343Z,25.20
2017-09-04T09:39:50.642Z,25.00
2017-09-04T09:42:18.931Z,25.00
2017-09-04T09:44:47.190Z,25.00
2017-09-04T09:47:16.206Z,25.30
2017-09-04T09:49:44.503Z,25.30
2017-09-04T09:52:12.769Z,25.50
2017-09-04T09:54:41.311Z,25.50
2017-09-04T09:57:09.802Z,25.60
2017-09-04T09:59:38.826Z,25.80
2017-09-04T10:02:07.074Z,25.80
2017-09-04T10:04:36.099Z,26.00
2017-09-04T10:07:04.338Z,26.00
2017-09-04T10:09:32.974Z,26.10
2017-09-04T10:12:01.226Z,26.20
2017-09-04T10:14:30.242Z,26.10
2017-09-04T10:16:58.508Z,26.20
2017-09-04T10:19:27.557Z,26.40
2017-09-04T10:21:55.802Z,26.40
2017-09-04T10:24:24.059Z,26.60
2017-09-04T10:26:53.078Z,26.50
2017-09-04T10:29:21.335Z,26.50
2017-09-04T10:31:50.365Z,26.30
2017-09-04T10:34:18.608Z,26.30
2017-09-04T10:36:46.864Z,26.20
2017-09-04T10:39:15.107Z,26.10
2017-09-04T10:41:43.404Z,26.10
2017-09-04T10:44:11.659Z,26.20
2017-09-04T10:46:40.672Z,26.30
2017-09-04T10:49:08.911Z,26.30
2017-09-04T10:51:38.703Z,26.20
2017-09-04T10:54:06.957Z,26.20
2017-09-04T10:56:35.224Z,26.00
2017-09-04T10:59:03.469Z,26.00
2017-09-04T11:01:32.494Z,25.90
2017-09-04T11:04:00.757Z,25.90
2017-09-04T11:06:29.012Z,25.90
2017-09-04T11:08:57.262Z,26.00
2017-09-04T11:11:25.718Z,26.30
2017-09-04T11:13:53.966Z,26.60
2017-09-04T11:16:22.228Z,26.70
2017-09-04T11:18:50.472Z,26.60
2017-09-04T11:21:18.730Z,26.60
2017-09-04T11:23:46.973Z,26.50
2017-09-04T11:26:15.251Z,26.70
2017-09-04T11:28:43.518Z,26.60
2017-09-04T11:31:12.715Z,26.60
2017-09-04T11:33:40.979Z,26.90
2017-09-04T11:36:09.256Z,27.20
2017-09-04T11:38:37.517Z,27.30
2017-09-04T11:41:05.809Z,27.50
2017-09-04T11:43:34.079Z,27.50
2017-09-04T11:46:02.358Z,27.70
2017-09-04T11:48:31.368Z,27.90
2017-09-04T11:50:59.676Z,27.90
2017-09-04T11:53:27.938Z,28.10
2017-09-04T11:55:56.182Z,28.10
2017-09-04T11:58:24.463Z,28.10
2017-09-04T12:00:53.474Z,28.00
2017-09-04T12:03:21.771Z,28.00
2017-09-04T12:05:50.107Z,27.70
2017-09-04T12:08:18.363Z,27.40
2017-09-04T12:10:46.614Z,27.20
2017-09-04T12:13:14.879Z,27.10
2017-09-04T12:15:43.150Z,26.90
2017-09-04T12:18:11.431Z,26.80
2017-09-04T12:20:40.464Z,26.50
2017-09-04T12:23:08.722Z,26.50
2017-09-04T12:25:36.982Z,26.30
2017-09-04T12:28:05.248Z,26.00
2017-09-04T12:30:33.486Z,26.00
2017-09-04T12:33:01.825Z,26.00
2017-09-04T12:35:30.087Z,26.00
2017-09-04T12:37:58.380Z,26.00
2017-09-04T12:40:26.623Z,25.80
2017-09-04T12:42:54.936Z,25.70
2017-09-04T12:45:23.196Z,25.50
2017-09-04T12:47:51.448Z,25.50
2017-09-04T12:50:19.764Z,25.40
2017-09-04T12:52:48.192Z,25.40
2017-09-04T12:55:16.443Z,25.20
2017-09-04T12:57:44.698Z,25.10
2017-09-04T13:00:12.965Z,24.80
2017-09-04T13:02:41.199Z,24.70
2017-09-04T13:05:10.226Z,24.90
2017-09-04T13:07:40.087Z,24.90
2017-09-04T13:13:12.858Z,25.10
2017-09-04T13:15:48.252Z,24.80
2017-09-04T13:18:22.220Z,24.80
2017-09-04T13:20:56.129Z,24.70
2017-09-04T13:23:27.135Z,24.90
2017-09-04T13:26:01.200Z,24.90
2017-09-04T13:28:35.151Z,25.00
2017-09-04T13:31:08.995Z,25.10
2017-09-04T13:36:45.046Z,24.90
2017-09-04T13:39:19.852Z,24.60
2017-09-04T13:41:53.851Z,24.60
2017-09-04T13:44:28.489Z,24.30
2017-09-04T13:46:56.941Z,24.30
2017-09-04T13:49:31.718Z,24.30
2017-09-04T13:52:05.564Z,24.30
2017-09-04T13:57:35.359Z,24.10
2017-09-04T14:00:09.370Z,24.20
2017-09-04T14:05:53.034Z,24.20
2017-09-04T14:08:25.572Z,24.40
2017-09-04T14:10:59.630Z,24.40
2017-09-04T14:16:38.170Z,24.20
2017-09-04T14:19:06.422Z,24.10
2017-09-04T14:21:34.681Z,24.00
2017-09-04T14:24:02.941Z,24.10
2017-09-04T14:26:31.197Z,24.00
2017-09-04T14:29:00.307Z,23.90
2017-09-04T14:31:28.551Z,23.90
2017-09-04T14:33:56.832Z,23.90
2017-09-04T14:36:25.088Z,23.80
2017-09-04T14:38:53.347Z,23.70
2017-09-04T14:41:21.588Z,23.60
2017-09-04T14:43:56.141Z,23.50
2017-09-04T14:46:28.031Z,23.50
2017-09-04T14:48:56.311Z,23.40
2017-09-04T14:51:24.564Z,23.40
2017-09-04T14:53:52.959Z,23.20
2017-09-04T14:56:21.210Z,23.30
2017-09-04T14:58:50.938Z,23.50
2017-09-04T15:01:19.194Z,23.50
2017-09-04T15:03:47.840Z,23.40
2017-09-04T15:06:16.563Z,23.50
2017-09-04T15:08:44.912Z,23.50
2017-09-04T15:11:13.158Z,23.50
2017-09-04T15:13:41.466Z,23.50
2017-09-04T15:16:10.723Z,23.50
2017-09-04T15:18:40.829Z,23.40
2017-09-04T15:21:09.622Z,23.30
2017-09-04T15:23:38.000Z,23.30
2017-09-04T15:26:06.595Z,23.30
2017-09-04T15:28:34.858Z,23.20
2017-09-04T15:31:03.190Z,23.30
2017-09-04T15:33:31.466Z,23.30
2017-09-04T15:36:00.486Z,23.30
2017-09-04T15:38:37.854Z,23.30
2017-09-04T15:41:09.637Z,23.40
2017-09-04T15:43:37.888Z,23.40
2017-09-04T15:46:06.927Z,23.50
2017-09-04T15:48:35.171Z,23.50
2017-09-04T15:51:04.194Z,23.40
2017-09-04T15:53:32.433Z,23.40
2017-09-04T15:56:00.690Z,23.20
2017-09-04T15:58:28.943Z,23.10
2017-09-04T16:00:57.211Z,23.10
2017-09-04T16:03:25.500Z,23.10
2017-09-04T16:05:55.378Z,23.20
2017-09-04T16:08:25.571Z,23.00
2017-09-04T16:10:54.351Z,23.00
2017-09-04T16:13:24.693Z,23.00
2017-09-04T16:15:56.579Z,22.90
2017-09-04T16:18:31.390Z,22.90
2017-09-04T16:20:59.671Z,22.80
2017-09-04T16:23:27.925Z,22.60
2017-09-04T16:25:57.647Z,22.50
2017-09-04T16:28:30.550Z,22.40
2017-09-04T16:31:04.604Z,22.30
2017-09-04T16:33:37.330Z,22.20
2017-09-04T16:36:07.596Z,22.00
2017-09-04T16:38:45.750Z,22.00
2017-09-04T16:41:20.754Z,21.90
2017-09-04T16:43:49.811Z,21.80
2017-09-04T16:46:23.666Z,21.80
2017-09-04T16:48:55.420Z,21.70
2017-09-04T16:51:28.163Z,21.60
2017-09-04T16:53:57.319Z,21.50
2017-09-04T16:56:41.377Z,21.30
2017-09-04T16:59:09.662Z,21.10
2017-09-04T17:01:38.703Z,21.00
2017-09-04T17:04:07.138Z,21.00
2017-09-04T17:06:35.384Z,21.00
2017-09-04T17:09:05.452Z,21.00
2017-09-04T17:11:35.384Z,20.90
2017-09-04T17:14:03.652Z,20.90
2017-09-04T17:16:31.892Z,20.90
2017-09-04T17:19:00.154Z,20.90
2017-09-04T17:21:34.963Z,20.90
2017-09-04T17:24:04.664Z,20.80
2017-09-04T17:26:33.713Z,20.80
2017-09-04T17:29:01.993Z,20.70
2017-09-04T17:31:30.230Z,20.80
2017-09-04T17:33:58.688Z,20.80
2017-09-04T17:36:26.934Z,20.90
2017-09-04T17:38:55.206Z,20.90
2017-09-04T17:41:23.442Z,20.80
2017-09-04T17:43:52.478Z,20.80
2017-09-04T17:46:20.754Z,20.80
2017-09-04T17:48:49.044Z,20.70
2017-09-04T17:51:17.284Z,20.80
2017-09-04T17:53:45.589Z,20.70
2017-09-04T17:56:13.828Z,20.70
2017-09-04T17:58:42.870Z,20.70
2017-09-04T18:01:11.121Z,20.70
2017-09-04T18:03:39.391Z,20.60
2017-09-04T18:06:08.421Z,20.70
2017-09-04T18:08:36.751Z,20.60
2017-09-04T18:11:05.735Z,20.70
2017-09-04T18:13:34.991Z,20.80
2017-09-04T18:16:03.303Z,20.80
2017-09-04T18:18:31.591Z,20.80
2017-09-04T18:21:00.015Z,20.80
2017-09-04T18:23:28.264Z,20.80
2017-09-04T18:25:56.573Z,20.80
2017-09-04T18:28:24.882Z,20.70
2017-09-04T18:30:53.143Z,20.80
2017-09-04T18:33:21.415Z,20.80
2017-09-04T18:35:49.665Z,20.70
2017-09-04T18:38:17.908Z,20.80
2017-09-04T18:40:46.233Z,20.80
2017-09-04T18:43:14.482Z,20.80
2017-09-04T18:45:42.770Z,20.80
2017-09-04T18:48:11.033Z,20.70
2017-09-04T18:50:39.301Z,20.70
2017-09-04T18:53:07.559Z,20.70
2017-09-04T18:55:35.841Z,20.70
2017-09-04T18:58:04.077Z,20.70
2017-09-04T19:00:33.258Z,20.70
2017-09-04T19:03:01.543Z,20.70
2017-09-04T19:05:30.233Z,20.60
2017-09-04T19:07:58.483Z,20.70
2017-09-04T19:10:27.427Z,20.60
2017-09-04T19:12:55.671Z,20.60
2017-09-04T19:15:23.973Z,20.60
2017-09-04T19:17:52.219Z,20.60
2017-09-04T19:20:20.479Z,20.60
2017-09-04T19:22:48.749Z,20.60
2017-09-04T19:25:17.011Z,20.60
2017-09-04T19:27:45.271Z,20.60
2017-09-04T19:30:13.543Z,20.60
2017-09-04T19:32:42.557Z,20.60
2017-09-04T19:35:10.839Z,20.60
2017-09-04T19:37:39.083Z,20.50
2017-09-04T19:40:07.365Z,20.50
2017-09-04T19:42:35.612Z,20.40
2017-09-04T19:45:03.868Z,20.50
2017-09-04T19:47:32.144Z,20.50
2017-09-04T19:50:00.389Z,20.60
2017-09-04T19:52:29.391Z,20.60
2017-09-04T19:54:58.421Z,20.60
2017-09-04T19:57:26.665Z,20.60
2017-09-04T19:59:54.967Z,20.70
2017-09-04T20:02:23.227Z,20.60
2017-09-04T20:04:52.321Z,20.60
2017-09-04T20:07:21.328Z,20.60
2017-09-04T20:09:49.563Z,20.60
2017-09-04T20:12:17.835Z,20.60
2017-09-04T20:14:46.093Z,20.50
2017-09-04T20:17:14.388Z,20.60
2017-09-04T20:19:42.638Z,20.50
2017-09-04T20:22:10.904Z,20.50
2017-09-04T20:24:39.176Z,20.50
2017-09-04T20:27:08.214Z,20.40
2017-09-04T20:29:36.472Z,20.40
2017-09-04T20:32:04.746Z,20.40
2017-09-04T20:34:33.027Z,20.30
2017-09-04T20:37:01.293Z,20.20
2017-09-04T20:39:29.523Z,20.30
2017-09-04T20:41:57.811Z,20.30
2017-09-04T20:44:26.107Z,20.30
2017-09-04T20:46:54.383Z,20.30
2017-09-04T20:49:22.644Z,20.20
2017-09-04T20:51:50.904Z,20.20
2017-09-04T20:54:19.935Z,20.20
2017-09-04T20:56:48.961Z,20.30
2017-09-04T20:59:17.228Z,20.20
2017-09-04T21:01:45.494Z,20.30
2017-09-04T21:04:13.750Z,20.30
2017-09-04T21:06:42.014Z,20.30
2017-09-04T21:09:10.289Z,20.30
2017-09-04T21:11:39.329Z,20.20
2017-09-04T21:14:07.591Z,20.20
2017-09-04T21:16:35.855Z,20.20
2017-09-04T21:19:04.107Z,20.20
2017-09-04T21:21:32.381Z,20.20
2017-09-04T21:24:00.622Z,20.10
2017-09-04T21:26:28.919Z,20.10
2017-09-04T21:28:57.174Z,20.10
2017-09-04T21:31:25.449Z,20.00
2017-09-04T21:33:53.706Z,20.00
2017-09-04T21:36:22.751Z,20.00
2017-09-04T21:38:51.130Z,20.00
2017-09-04T21:41:19.589Z,20.00
2017-09-04T21:43:48.649Z,19.90
2017-09-04T21:46:16.879Z,19.90
2017-09-04T21:48:45.162Z,19.90
2017-09-04T21:51:13.401Z,19.80
2017-09-04T21:53:42.438Z,19.80
2017-09-04T21:56:10.733Z,19.80
2017-09-04T21:58:38.994Z,19.80
2017-09-04T22:01:07.242Z,19.70
2017-09-04T22:03:36.295Z,19.70
2017-09-04T22:06:04.531Z,19.70
2017-09-04T22:08:32.805Z,19.70
2017-09-04T22:11:01.064Z,19.80
2017-09-04T22:13:30.275Z,19.70
2017-09-04T22:15:58.642Z,19.70
2017-09-04T22:18:27.214Z,19.70
2017-09-04T22:20:55.423Z,19.70
2017-09-04T22:23:23.685Z,19.70
2017-09-04T22:25:51.922Z,19.60
2017-09-04T22:28:20.202Z,19.60
2017-09-04T22:30:48.483Z,19.60
2017-09-04T22:33:16.736Z,19.60
2017-09-04T22:35:45.813Z,19.50
2017-09-04T22:38:14.845Z,19.50
2017-09-04T22:40:43.870Z,19.50
2017-09-04T22:43:12.196Z,19.50
2017-09-04T22:45:40.446Z,19.40
2017-09-04T22:48:08.722Z,19.30
2017-09-04T22:50:36.951Z,19.30
2017-09-04T22:53:05.226Z,19.30
2017-09-04T22:55:33.467Z,19.30
2017-09-04T22:58:02.210Z,19.30
2017-09-04T23:00:30.461Z,19.30
2017-09-04T23:02:58.785Z,19.30
2017-09-04T23:05:27.788Z,19.30
2017-09-04T23:07:56.036Z,19.30
2017-09-04T23:10:24.342Z,19.30
2017-09-04T23:12:53.374Z,19.30
2017-09-04T23:15:21.637Z,19.30
2017-09-04T23:17:49.890Z,19.20
2017-09-04T23:20:18.909Z,19.30
2017-09-04T23:22:47.934Z,19.30
2017-09-04T23:25:16.187Z,19.30
2017-09-04T23:27:44.426Z,19.30
2017-09-04T23:30:12.752Z,19.20
2017-09-04T23:32:40.995Z,19.30
2017-09-04T23:35:09.251Z,19.20
2017-09-04T23:37:37.494Z,19.10
2017-09-04T23:40:05.755Z,19.10
2017-09-04T23:42:34.782Z,19.10
2017-09-04T23:45:03.373Z,19.00
2017-09-04T23:47:31.625Z,19.00
2017-09-04T23:49:59.897Z,19.00
2017-09-04T23:52:28.134Z,19.10
2017-09-04T23:54:56.407Z,19.00
2017-09-04T23:57:24.649Z,19.10
2017-09-04T23:59:52.904Z,19.00
